• Join FlightAware (Why Join?)
  • Login
  • US Flag 
01:31AM EDT


 

Airport Tracker/Info


-or-


 

Live Flight TrackerFlight Track Log ✈ SWA868 ✈ 21-Apr-2013 ✈ KBWI - KBNA

Flight Track Log - Related Links

Times and Time Zones

All times are in EDT time to prevent confusion due to time zone crossing. See the SWA868 flight status page for this flight to view local times or setup timezone preferences in your user account.

Time Position Orientation Groundspeed Altitude Reporting Facility
EDT Latitude Longitude Course Direction KTS MPH feet Rate Location/Type
04:26PM 39.1833 -76.7167 270° West 168 193 1,700  Level Potomac TRACON
04:27PM 39.1833 -76.7833 270° West 215 247 3,700 1,980 Climbing Potomac TRACON
04:28PM 39.2000 -76.8667 284° West 263 303 5,800 2,520 Climbing Potomac TRACON
04:29PM 39.2167 -76.9667 282° West 271 312 8,900 2,640 Climbing Potomac TRACON
04:30PM 39.2033 -77.1558 265° West 300 345 13,400 2,760 Climbing Washington Center
04:31PM 39.1231 -77.2317 216° Southwest 309 356 16,700 3,000 Climbing Washington Center
04:32PM 39.0656 -77.3319 234° Southwest 333 383 19,400 2,700 Climbing Washington Center
04:33PM 39.0364 -77.4569 253° West 352 405 22,100 2,580 Climbing Washington Center
04:34PM 39.0050 -77.5978 254° West 370 426 24,600 2,040 Climbing Washington Center
04:35PM 38.9739 -77.7169 251° West 381 438 26,200 1,740 Climbing Washington Center
04:36PM 38.9378 -77.8653 253° West 390 449 28,100 1,920 Climbing Washington Center
04:37PM 38.9058 -78.0058 254° West 398 458 30,100 1,920 Climbing Washington Center
04:38PM 38.8719 -78.1381 252° West 398 458 32,000 900 Climbing Washington Center
04:39PM 38.8522 -78.2706 259° West 388 447 32,000  Level Washington Center
04:40PM 38.8511 -78.4119 269° West 388 447 32,000 900 Level Washington Center
04:41PM 38.8500 -78.5478 269° West 388 447 33,800 1,680 Climbing Washington Center
04:42PM 38.8486 -78.6836 269° West 382 440 35,400 1,500 Climbing Washington Center
04:43PM 38.8472 -78.8169 269° West 382 440 36,800 1,260 Climbing Washington Center
04:44PM 38.8456 -78.9500 269° West 382 440 38,000 600 Climbing Washington Center
04:45PM 38.8439 -79.0833 269° West 382 440 38,000  Level Washington Center
04:46PM 38.8381 -79.2136 267° West 382 440 38,000  Level Washington Center
04:47PM 38.8175 -79.3406 258° West 382 440 38,000  Level Washington Center
04:48PM 38.7947 -79.4672 257° West 376 433 38,000  Level Washington Center
04:49PM 38.7714 -79.6017 257° West 376 433 38,000  Level Washington Center
04:50PM 38.7464 -79.7308 256° West 376 433 38,000  Level Washington Center
04:52PM 38.7019 -79.9525 256° West 373 429 38,000  Level Indianapolis Center
04:53PM 38.6792 -80.0814 257° West 371 427 38,000  Level Indianapolis Center
04:54PM 38.6550 -80.2103 257° West 372 428 38,000  Level Indianapolis Center
04:55PM 38.6314 -80.3394 257° West 371 427 38,000  Level Indianapolis Center
04:56PM 38.6058 -80.4683 256° West 373 429 38,000  Level Indianapolis Center
04:57PM 38.5817 -80.5975 257° West 374 430 38,000  Level Indianapolis Center
04:59PM 38.5417 -80.7280 256° West  Level FlightAware Approximate
04:59PM 38.5269 -80.8833 256° West 375 432 38,000  Level Indianapolis Center
05:00PM 38.5003 -81.0142 255° West 380 437 38,000  Level Indianapolis Center
05:01PM 38.4753 -81.1453 256° West 378 435 38,000  Level Indianapolis Center
05:03PM 38.4494 -81.2781 256° West 381 438 38,000  Level Indianapolis Center
05:04PM 38.4219 -81.4089 255° West 379 436 38,000  Level Indianapolis Center
05:05PM 38.3972 -81.5417 257° West 381 438 38,000  Level Indianapolis Center
05:06PM 38.3694 -81.6744 255° West 383 441 38,000  Level Indianapolis Center
05:07PM 38.3406 -81.8058 254° West 382 440 38,000  Level Indianapolis Center
05:08PM 38.3036 -81.9344 250° West 385 443 38,000  Level Indianapolis Center
05:09PM 38.2600 -82.0897 250° West 387 445 38,000  Level Indianapolis Center
05:10PM 38.2236 -82.2208 251° West 392 451 38,000  Level Indianapolis Center
05:11PM 38.1861 -82.3511 250° West 392 451 38,000  Level Indianapolis Center
05:12PM 38.1492 -82.4819 250° West 393 452 38,000  Level Indianapolis Center
05:13PM 38.1106 -82.6175 250° West 392 451 38,000  Level Indianapolis Center
05:14PM 38.0728 -82.7444 249° West 388 447 38,000  Level Indianapolis Center
05:15PM 38.0350 -82.8736 250° West 390 449 38,000  Level Indianapolis Center
05:16PM 37.9922 -83.0236 250° West 390 449 38,000  Level Indianapolis Center
05:17PM 37.9542 -83.1519 249° West 389 448 38,000  Level Indianapolis Center
05:18PM 37.9161 -83.2814 250° West 391 450 38,000  Level Indianapolis Center
05:19PM 37.8775 -83.4133 250° West 397 457 38,000 -60 Level Indianapolis Center
05:20PM 37.8383 -83.5419 249° West 395 455 37,900 -540 Descending Indianapolis Center
05:21PM 37.8000 -83.6719 250° West 395 455 37,000 -960 Descending Indianapolis Center
05:22PM 37.7819 -83.8325 262° West 399 459 36,000 -540 Descending Indianapolis Center
05:23PM 37.7747 -83.9719 266° West 398 458 36,000 -480 Level Indianapolis Center
05:24PM 37.7675 -84.1100 266° West 395 455 35,100 -960 Descending Indianapolis Center
05:25PM 37.7614 -84.2497 267° West 397 457 34,100 -1,020 Descending Indianapolis Center
05:26PM 37.7547 -84.3881 267° West 395 455 33,100 -1,020 Descending Indianapolis Center
05:27PM 37.6831 -84.4869 228° Southwest 389 448 32,100 -540 Descending Indianapolis Center
05:28PM 37.5856 -84.5853 219° Southwest 387 445 32,000 -60 Descending Indianapolis Center
05:29PM 37.5008 -84.6706 219° Southwest 388 447 32,000  Level Indianapolis Center
05:30PM 37.4164 -84.7547 218° Southwest 387 445 32,000  Level Indianapolis Center
05:31PM 37.3311 -84.8375 218° Southwest 386 444 32,000  Level Indianapolis Center
05:32PM 37.2458 -84.9217 218° Southwest 388 447 32,000 -480 Level Indianapolis Center
05:33PM 37.1456 -85.0206 218° Southwest 392 451 31,100 -1,020 Descending Indianapolis Center
05:34PM 37.0589 -85.1058 218° Southwest 395 455 30,000 -1,500 Descending Indianapolis Center
05:35PM 36.9833 -85.1792 218° Southwest 394 453 28,100 -2,220 Descending Indianapolis Center
05:37PM 36.8850 -85.2733 217° Southwest 378 435 25,500 -2,280 Descending Indianapolis Center
05:38PM 36.8053 -85.3503 218° Southwest 365 420 23,400 -1,980 Descending Indianapolis Center
05:38PM 36.7697 -85.3839 217° Southwest 377 434 22,500 -960 Descending Memphis Center
05:39PM 36.7092 -85.4911 235° Southwest 357 411 22,000 -300 Descending Memphis Center
05:40PM 36.6608 -85.5872 238° Southwest 357 411 22,000 -900 Level Memphis Center
05:41PM 36.6106 -85.6911 239° Southwest 362 417 20,200 -1,800 Descending Memphis Center
05:42PM 36.5644 -85.7919 240° Southwest 350 403 18,500 -1,260 Descending Memphis Center
05:43PM 36.5142 -85.9006 240° Southwest 336 387 17,700 -2,040 Descending Memphis Center
05:44PM 36.4678 -86.0011 240° Southwest 336 387 14,500 -2,520 Descending Memphis Center
05:45PM 36.4189 -86.0967 238° Southwest 341 392 12,700 -1,860 Descending Memphis Center
05:46PM 36.3761 -86.1892 240° Southwest 321 369 10,800 -1,320 Descending Memphis Center
05:47PM 36.3333 -86.2789 239° Southwest 312 359 10,100 -840 Descending Memphis Center
05:48PM 36.2981 -86.3503 239° Southwest 290 334 9,200 -1,140 Descending Memphis Center
05:49PM 36.2608 -86.4267 239° Southwest 272 313 7,900 -1,320 Descending Memphis Center
05:50PM 36.2236 -86.5031 239° Southwest 272 313 6,600 -1,080 Descending Memphis Center
05:51PM 36.1644 -86.5392 206° Southwest 245 282 5,800 -840 Descending Memphis Center
05:52PM 36.0986 -86.5681 200° South 234 269 5,000 -780 Descending Memphis Center
05:53PM 36.0408 -86.5886 196° South 229 264 4,300 -780 Descending Memphis Center
05:54PM 35.9958 -86.6217 211° Southwest 211 243 3,500 -840 Descending Memphis Center
05:55PM 36.0061 -86.6828 282° West 167 192 2,700 -840 Descending Memphis Center
05:56PM 36.0503 -86.6936 349° North 133 153 1,900 -840 Descending Memphis Center
05:59PM 36.1167 -86.6667 North  Level FlightAware Approximate
06:06PM 36.1245 -86.6782 North  Level Estimated
06:07PM 36.1245 -86.6782 North  Level Estimated
06:08PM 36.1245 -86.6782 North  Level Estimated
06:09PM 36.1245 -86.6782 North  Level Estimated
06:10PM 36.1245 -86.6782 North  Level Estimated
06:11PM 36.1245 -86.6782 North  Level Estimated
06:12PM 36.1245 -86.6782 North  Level Estimated
06:13PM 36.1245 -86.6782 North  Level Estimated
06:14PM 36.1245 -86.6782 North  Level Estimated